createdAt,value
2023-03-16T00:02:13.941Z,101928.09
2023-03-16T00:04:40.580Z,101922.97
2023-03-16T00:07:09.667Z,101921.00
2023-03-16T00:09:40.731Z,101926.03
2023-03-16T00:12:16.313Z,101929.19
2023-03-16T00:14:44.701Z,101917.75
2023-03-16T00:17:20.261Z,101921.84
2023-03-16T00:19:48.190Z,101905.63
2023-03-16T00:22:16.062Z,101890.91
2023-03-16T00:24:45.802Z,101904.56
2023-03-16T00:27:14.696Z,101906.31
2023-03-16T00:29:47.103Z,101896.84
2023-03-16T00:32:18.927Z,101889.13
2023-03-16T00:34:46.339Z,101888.09
2023-03-16T00:37:15.634Z,101883.78
2023-03-16T00:39:42.957Z,101876.06
2023-03-16T00:42:11.552Z,101883.66
2023-03-16T00:44:38.283Z,101878.53
2023-03-16T00:47:06.322Z,101867.31
2023-03-16T00:49:34.801Z,101875.97
2023-03-16T00:52:05.434Z,101869.09
2023-03-16T00:54:32.790Z,101869.09
2023-03-16T00:57:00.728Z,101875.84
2023-03-16T00:59:28.320Z,101870.72
2023-03-16T01:01:55.442Z,101861.13
2023-03-16T01:04:23.065Z,101861.13
2023-03-16T01:06:49.908Z,101852.59
2023-03-16T01:09:16.404Z,101849.13
2023-03-16T01:11:46.418Z,101846.44
2023-03-16T01:14:13.124Z,101846.22
2023-03-16T01:16:39.582Z,101844.56
2023-03-16T01:19:06.225Z,101839.31
2023-03-16T01:21:33.740Z,101829.94
2023-03-16T01:24:00.222Z,101837.53
2023-03-16T01:26:26.817Z,101835.94
2023-03-16T01:28:54.482Z,101840.22
2023-03-16T01:31:21.242Z,101828.31
2023-03-16T01:33:48.060Z,101823.19
2023-03-16T01:36:17.436Z,101825.66
2023-03-16T01:38:44.279Z,101812.78
2023-03-16T01:41:11.298Z,101805.09
2023-03-16T01:43:39.501Z,101801.56
2023-03-16T01:46:05.983Z,101801.44
2023-03-16T01:48:51.719Z,101799.72
2023-03-16T01:51:27.217Z,101806.47
2023-03-16T01:53:59.021Z,101796.19
2023-03-16T01:56:34.534Z,101796.19
2023-03-16T01:59:03.142Z,101786.88
2023-03-16T02:01:29.717Z,101779.84
2023-03-16T02:04:05.711Z,101783.34
2023-03-16T02:06:33.108Z,101780.88
2023-03-16T02:09:00.486Z,101776.56
2023-03-16T02:11:28.116Z,101774.81
2023-03-16T02:13:59.593Z,101773.06
2023-03-16T02:16:26.483Z,101771.28
2023-03-16T02:18:53.338Z,101765.22
2023-03-16T02:21:33.762Z,101759.97
2023-03-16T02:24:03.091Z,101764.06
2023-03-16T02:26:53.533Z,101751.09
2023-03-16T02:29:41.789Z,101762.09
2023-03-16T02:32:10.260Z,101757.75
2023-03-16T02:34:37.233Z,101751.69
2023-03-16T02:37:04.245Z,101753.31
2023-03-16T02:39:30.612Z,101748.03
2023-03-16T02:41:57.135Z,101756.50
2023-03-16T02:44:28.957Z,101751.34
2023-03-16T02:47:01.223Z,101752.84
2023-03-16T02:49:34.434Z,101755.31
2023-03-16T02:52:00.905Z,101749.22
2023-03-16T02:54:27.311Z,101756.94
2023-03-16T02:56:53.665Z,101759.63
2023-03-16T02:59:20.158Z,101763.13
2023-03-16T03:01:46.547Z,101757.19
2023-03-16T03:04:13.352Z,101768.38
2023-03-16T03:06:40.284Z,101756.38
2023-03-16T03:09:07.471Z,101750.38
2023-03-16T03:11:33.882Z,101750.50
2023-03-16T03:14:00.332Z,101742.78
2023-03-16T03:16:26.787Z,101747.13
2023-03-16T03:18:53.578Z,101747.00
2023-03-16T03:21:20.340Z,101738.47
2023-03-16T03:23:46.856Z,101744.44
2023-03-16T03:26:17.129Z,101737.66
2023-03-16T03:28:44.590Z,101737.66
2023-03-16T03:31:16.436Z,101738.47
2023-03-16T03:33:43.772Z,101738.59
2023-03-16T03:36:11.438Z,101725.88
2023-03-16T03:38:38.606Z,101723.28
2023-03-16T03:41:07.277Z,101722.34
2023-03-16T03:43:34.680Z,101708.78
2023-03-16T03:46:03.466Z,101712.31
2023-03-16T03:48:30.154Z,101700.50
2023-03-16T03:50:56.608Z,101698.03
2023-03-16T03:53:23.028Z,101699.91
2023-03-16T03:55:49.891Z,101690.56
2023-03-16T03:58:16.423Z,101689.19
2023-03-16T04:00:42.906Z,101689.88
2023-03-16T04:03:09.428Z,101695.94
2023-03-16T04:05:35.966Z,101690.09
2023-03-16T04:08:02.409Z,101692.66
2023-03-16T04:10:30.626Z,101685.88
2023-03-16T04:12:58.175Z,101687.06
2023-03-16T04:15:24.617Z,101678.63
2023-03-16T04:17:52.623Z,101674.56
2023-03-16T04:20:20.000Z,101683.19
2023-03-16T04:22:47.035Z,101681.47
2023-03-16T04:25:15.568Z,101680.75
2023-03-16T04:27:42.440Z,101671.53
2023-03-16T04:30:13.055Z,101666.50
2023-03-16T04:32:40.275Z,101680.28
2023-03-16T04:35:07.025Z,101680.41
2023-03-16T04:37:34.501Z,101675.38
2023-03-16T04:40:01.002Z,101680.50
2023-03-16T04:42:27.405Z,101682.28
2023-03-16T04:44:53.804Z,101672.91
2023-03-16T04:47:20.216Z,101675.38
2023-03-16T04:49:46.661Z,101673.50
2023-03-16T04:52:13.105Z,101677.59
2023-03-16T04:54:39.465Z,101672.34
2023-03-16T04:57:05.947Z,101676.66
2023-03-16T04:59:32.405Z,101674.78
2023-03-16T05:01:58.818Z,101678.91
2023-03-16T05:04:25.203Z,101678.91
2023-03-16T05:06:51.663Z,101681.34
2023-03-16T05:09:18.134Z,101674.44
2023-03-16T05:11:44.651Z,101677.72
2023-03-16T05:14:11.092Z,101668.25
2023-03-16T05:16:37.541Z,101665.56
2023-03-16T05:19:04.935Z,101671.41
2023-03-16T05:21:32.057Z,101665.31
2023-03-16T05:23:58.602Z,101666.16
2023-03-16T05:26:25.721Z,101658.19
2023-03-16T05:28:52.131Z,101661.59
2023-03-16T05:31:19.235Z,101658.06
2023-03-16T05:33:45.844Z,101664.03
2023-03-16T05:36:13.094Z,101654.56
2023-03-16T05:38:39.577Z,101657.13
2023-03-16T05:41:06.327Z,101654.47
2023-03-16T05:43:34.296Z,101654.47
2023-03-16T05:46:00.747Z,101650.13
2023-03-16T05:48:27.480Z,101650.13
2023-03-16T05:50:53.978Z,101649.31
2023-03-16T05:53:21.186Z,101645.81
2023-03-16T05:55:53.749Z,101644.16
2023-03-16T05:58:21.101Z,101640.78
2023-03-16T06:00:47.515Z,101632.25
2023-03-16T06:03:13.965Z,101639.03
2023-03-16T06:05:41.620Z,101633.09
2023-03-16T06:08:09.186Z,101635.53
2023-03-16T06:10:36.209Z,101638.91
2023-03-16T06:13:02.563Z,101638.00
2023-03-16T06:15:30.530Z,101639.50
2023-03-16T06:17:56.995Z,101639.38
2023-03-16T06:20:23.432Z,101634.91
2023-03-16T06:22:50.111Z,101634.81
2023-03-16T06:25:17.007Z,101630.38
2023-03-16T06:27:43.545Z,101626.03
2023-03-16T06:30:12.030Z,101625.13
2023-03-16T06:32:39.109Z,101619.72
2023-03-16T06:35:05.831Z,101624.88
2023-03-16T06:37:32.538Z,101636.53
2023-03-16T06:39:59.303Z,101619.22
2023-03-16T06:42:25.854Z,101618.19
2023-03-16T06:44:52.767Z,101605.88
2023-03-16T06:47:20.051Z,101607.41
2023-03-16T06:49:51.697Z,101610.56
2023-03-16T06:52:18.055Z,101610.44
2023-03-16T06:54:44.539Z,101600.03
2023-03-16T06:57:11.476Z,101601.53
2023-03-16T06:59:38.034Z,101598.59
2023-03-16T07:02:04.524Z,101603.25
2023-03-16T07:04:30.978Z,101598.28
2023-03-16T07:06:57.475Z,101596.75
2023-03-16T07:09:24.052Z,101601.13
2023-03-16T07:11:52.577Z,101602.97
2023-03-16T07:14:19.952Z,101594.63
2023-03-16T07:16:46.508Z,101596.94
2023-03-16T07:19:12.949Z,101602.34
2023-03-16T07:21:40.763Z,101590.41
2023-03-16T07:24:09.191Z,101604.19
2023-03-16T07:26:35.561Z,101591.34
2023-03-16T07:29:02.127Z,101593.09
2023-03-16T07:31:28.797Z,101587.16
2023-03-16T07:33:55.273Z,101593.09
2023-03-16T07:36:21.704Z,101594.75
2023-03-16T07:38:48.150Z,101587.81
2023-03-16T07:41:14.606Z,101598.13
2023-03-16T07:43:41.022Z,101592.28
2023-03-16T07:46:07.462Z,101593.91
2023-03-16T07:48:33.950Z,101599.06
2023-03-16T07:51:00.685Z,101591.34
2023-03-16T07:53:27.097Z,101599.06
2023-03-16T07:55:53.548Z,101590.41
2023-03-16T07:58:20.031Z,101596.34
2023-03-16T08:00:46.482Z,101598.69
2023-03-16T08:03:13.822Z,101605.34
2023-03-16T08:05:40.267Z,101597.50
2023-03-16T08:08:09.590Z,101598.88
2023-03-16T08:10:36.018Z,101596.63
2023-03-16T08:13:04.776Z,101594.09
2023-03-16T08:15:33.835Z,101591.31
2023-03-16T08:18:02.474Z,101576.88
2023-03-16T08:20:29.918Z,101587.50
2023-03-16T08:22:56.594Z,101577.50
2023-03-16T08:25:23.079Z,101569.50
2023-03-16T08:27:50.162Z,101569.00
2023-03-16T08:30:17.365Z,101567.66
2023-03-16T08:32:43.841Z,101565.91
2023-03-16T08:35:13.982Z,101566.84
2023-03-16T08:37:41.727Z,101574.44
2023-03-16T08:40:11.170Z,101573.38
2023-03-16T08:42:38.811Z,101579.22
2023-03-16T08:45:11.715Z,101573.13
2023-03-16T08:47:40.476Z,101577.16
2023-03-16T08:50:08.776Z,101571.75
2023-03-16T08:52:36.454Z,101565.66
2023-03-16T08:55:05.492Z,101575.69
2023-03-16T08:57:34.992Z,101564.81
2023-03-16T09:00:04.172Z,101562.66
2023-03-16T09:02:30.539Z,101567.25
2023-03-16T09:04:57.046Z,101579.09
2023-03-16T09:07:23.467Z,101565.78
2023-03-16T09:09:51.498Z,101565.38
2023-03-16T09:12:18.663Z,101560.31
2023-03-16T09:14:45.911Z,101559.78
2023-03-16T09:17:12.844Z,101563.84
2023-03-16T09:20:03.135Z,101563.84
2023-03-16T09:22:25.755Z,101560.44
2023-03-16T09:24:52.214Z,101566.03
2023-03-16T09:27:19.130Z,101552.72
2023-03-16T09:29:46.610Z,101559.66
2023-03-16T09:32:14.107Z,101548.34
2023-03-16T09:34:40.703Z,101561.13
2023-03-16T09:37:07.242Z,101558.56
2023-03-16T09:39:34.066Z,101553.25
2023-03-16T09:42:27.444Z,101555.97
2023-03-16T09:45:18.773Z,101550.81
2023-03-16T09:47:48.500Z,101547.16
2023-03-16T09:50:38.193Z,101544.28
2023-03-16T09:53:29.612Z,101549.16
2023-03-16T09:56:03.392Z,101547.88
2023-03-16T09:58:32.126Z,101542.25
2023-03-16T10:01:14.397Z,101545.91
2023-03-16T10:04:05.318Z,101535.69
2023-03-16T10:06:33.009Z,101529.59
2023-03-16T10:09:14.634Z,101522.22
2023-03-16T10:11:49.498Z,101517.31
2023-03-16T10:14:51.011Z,101511.84
2023-03-16T10:17:23.257Z,101509.53
2023-03-16T10:19:53.867Z,101510.31
2023-03-16T10:22:26.492Z,101514.09
2023-03-16T10:25:19.165Z,101514.13
2023-03-16T10:27:46.564Z,101515.44
2023-03-16T10:30:19.996Z,101510.91
2023-03-16T10:32:47.129Z,101510.34
2023-03-16T10:35:36.144Z,101503.91
2023-03-16T10:38:02.531Z,101500.69
2023-03-16T10:40:33.105Z,101495.50
2023-03-16T10:43:26.315Z,101486.41
2023-03-16T10:45:59.667Z,101491.63
2023-03-16T10:48:28.306Z,101490.97
2023-03-16T10:50:57.564Z,101482.69
2023-03-16T10:53:29.360Z,101483.03
2023-03-16T10:56:05.546Z,101485.31
2023-03-16T10:58:34.243Z,101476.06
2023-03-16T11:01:01.632Z,101474.25
2023-03-16T11:03:38.766Z,101482.22
2023-03-16T11:06:07.494Z,101465.34
2023-03-16T11:08:37.585Z,101473.91
2023-03-16T11:11:14.605Z,101464.69
2023-03-16T11:13:45.382Z,101460.47
2023-03-16T11:16:31.631Z,101454.28
2023-03-16T11:19:27.194Z,101452.03
2023-03-16T11:22:00.239Z,101453.16
2023-03-16T11:24:39.728Z,101453.16
2023-03-16T11:27:18.137Z,101455.44
2023-03-16T11:30:27.108Z,101428.31
2023-03-16T11:32:54.255Z,101430.91
2023-03-16T11:35:30.912Z,101425.38
2023-03-16T11:38:18.843Z,101415.50
2023-03-16T11:40:56.784Z,101421.34
2023-03-16T11:44:08.562Z,101426.03
2023-03-16T11:46:45.208Z,101420.97
2023-03-16T11:49:44.536Z,101412.03
2023-03-16T11:52:31.972Z,101415.25
2023-03-16T11:55:11.146Z,101416.47
2023-03-16T11:58:28.602Z,101420.03
2023-03-16T12:01:08.658Z,101417.97
2023-03-16T12:04:01.973Z,101402.50
2023-03-16T12:06:31.558Z,101403.91
2023-03-16T12:09:16.657Z,101393.28
2023-03-16T12:12:02.763Z,101389.63
2023-03-16T12:14:40.908Z,101390.53
2023-03-16T12:17:13.215Z,101393.44
2023-03-16T12:20:05.892Z,101381.91
2023-03-16T12:22:44.370Z,101376.63
2023-03-16T12:25:27.786Z,101378.03
2023-03-16T12:27:58.320Z,101373.81
2023-03-16T12:30:32.422Z,101368.16
2023-03-16T12:33:07.640Z,101361.13
2023-03-16T12:35:46.821Z,101356.13
2023-03-16T12:38:51.011Z,101355.84
2023-03-16T12:41:55.309Z,101353.28
2023-03-16T12:44:44.236Z,101346.84
2023-03-16T12:47:32.719Z,101344.59
2023-03-16T12:50:12.668Z,101339.94
2023-03-16T12:52:44.769Z,101328.72
2023-03-16T12:55:21.389Z,101329.44
2023-03-16T12:57:51.564Z,101327.53
2023-03-16T13:00:19.524Z,101318.38
2023-03-16T13:02:53.514Z,101300.50
2023-03-16T13:05:32.096Z,101306.56
2023-03-16T13:08:11.756Z,101286.34
2023-03-16T13:10:38.695Z,101283.81
2023-03-16T13:13:17.130Z,101285.13
2023-03-16T13:15:47.505Z,101270.44
2023-03-16T13:18:16.979Z,101279.31
2023-03-16T13:20:57.220Z,101271.72
2023-03-16T13:23:25.825Z,101269.44
2023-03-16T13:26:04.058Z,101273.84
2023-03-16T13:28:35.160Z,101272.53
2023-03-16T13:31:02.704Z,101275.41
2023-03-16T13:33:37.318Z,101265.00
2023-03-16T13:36:06.223Z,101269.94
2023-03-16T13:38:32.736Z,101255.34
2023-03-16T13:41:05.997Z,101255.81
2023-03-16T13:43:35.647Z,101251.75
2023-03-16T13:46:03.341Z,101238.25
2023-03-16T13:48:29.921Z,101257.88
2023-03-16T13:50:57.888Z,101238.66
2023-03-16T13:53:32.935Z,101233.72
2023-03-16T13:56:02.139Z,101236.00
2023-03-16T13:58:35.561Z,101229.59
2023-03-16T14:01:05.027Z,101227.78
2023-03-16T14:03:35.954Z,101239.41
2023-03-16T14:06:04.556Z,101241.41
2023-03-16T14:08:31.681Z,101234.56
2023-03-16T14:11:01.100Z,101221.56
2023-03-16T14:13:27.705Z,101223.84
2023-03-16T14:15:56.453Z,101223.66
2023-03-16T14:18:26.907Z,101220.66
2023-03-16T14:20:55.419Z,101214.59
2023-03-16T14:23:31.174Z,101216.22
2023-03-16T14:25:57.695Z,101213.59
2023-03-16T14:28:32.305Z,101207.97
2023-03-16T14:31:06.379Z,101201.97
2023-03-16T14:33:37.650Z,101205.00
2023-03-16T14:36:11.615Z,101203.78
2023-03-16T14:38:40.473Z,101192.13
2023-03-16T14:41:24.296Z,101187.72
2023-03-16T14:44:01.839Z,101187.31
2023-03-16T14:46:29.944Z,101185.91
2023-03-16T14:49:29.121Z,101185.50
2023-03-16T14:52:02.739Z,101178.84
2023-03-16T14:54:29.692Z,101185.06
2023-03-16T14:57:01.506Z,101167.00
2023-03-16T14:59:28.630Z,101166.56
2023-03-16T15:01:56.643Z,101161.16
2023-03-16T15:04:30.019Z,101156.72
2023-03-16T15:06:57.614Z,101156.53
2023-03-16T15:09:39.276Z,101150.25
2023-03-16T15:12:14.775Z,101139.75
2023-03-16T15:14:59.879Z,101140.94
2023-03-16T15:17:27.017Z,101139.34
2023-03-16T15:19:53.583Z,101132.91
2023-03-16T15:22:27.895Z,101135.91
2023-03-16T15:24:55.870Z,101126.09
2023-03-16T15:27:31.527Z,101125.06
2023-03-16T15:29:57.937Z,101129.31
2023-03-16T15:32:24.342Z,101115.44
2023-03-16T15:34:50.826Z,101119.25
2023-03-16T15:37:19.408Z,101118.66
2023-03-16T15:39:47.312Z,101117.88
2023-03-16T15:42:15.996Z,101112.44
2023-03-16T15:44:43.035Z,101118.06
2023-03-16T15:47:10.823Z,101108.19
2023-03-16T15:49:47.094Z,101113.03
2023-03-16T15:52:30.401Z,101105.19
2023-03-16T15:54:59.191Z,101120.44
2023-03-16T15:57:26.133Z,101108.41
2023-03-16T15:59:52.501Z,101119.44
2023-03-16T16:02:31.037Z,101110.81
2023-03-16T16:04:58.876Z,101100.38
2023-03-16T16:07:25.443Z,101091.16
2023-03-16T16:09:51.861Z,101094.34
2023-03-16T16:12:20.322Z,101093.97
2023-03-16T16:14:47.150Z,101098.38
2023-03-16T16:17:24.799Z,101099.59
2023-03-16T16:19:53.541Z,101089.31
2023-03-16T16:22:20.208Z,101090.13
2023-03-16T16:24:47.140Z,101091.94
2023-03-16T16:27:13.535Z,101091.69
2023-03-16T16:29:43.490Z,101092.47
2023-03-16T16:32:22.578Z,101093.28
2023-03-16T16:35:03.324Z,101084.19
2023-03-16T16:37:30.470Z,101078.50
2023-03-16T16:39:56.904Z,101086.94
2023-03-16T16:42:23.313Z,101089.06
2023-03-16T16:44:57.117Z,101092.41
2023-03-16T16:47:26.820Z,101085.13
2023-03-16T16:49:53.388Z,101084.50
2023-03-16T16:52:20.238Z,101086.19
2023-03-16T16:54:46.635Z,101088.16
2023-03-16T16:57:20.262Z,101095.72
2023-03-16T16:59:48.334Z,101096.03
2023-03-16T17:02:32.786Z,101099.16
2023-03-16T17:04:59.385Z,101093.81
2023-03-16T17:07:25.811Z,101100.16
2023-03-16T17:09:52.242Z,101093.63
2023-03-16T17:12:22.304Z,101089.09
2023-03-16T17:14:50.022Z,101092.34
2023-03-16T17:17:17.772Z,101095.25
2023-03-16T17:19:46.764Z,101092.50
2023-03-16T17:22:22.826Z,101099.16
2023-03-16T17:24:49.606Z,101086.59
2023-03-16T17:27:24.714Z,101100.72
2023-03-16T17:29:51.704Z,101105.34
2023-03-16T17:32:25.468Z,101106.25
2023-03-16T17:34:52.303Z,101109.28
2023-03-16T17:37:22.061Z,101098.19
2023-03-16T17:39:48.961Z,101096.00
2023-03-16T17:42:18.440Z,101083.91
2023-03-16T17:44:53.080Z,101095.53
2023-03-16T17:47:24.569Z,101089.25
2023-03-16T17:49:51.397Z,101085.91
2023-03-16T17:52:23.535Z,101086.16
2023-03-16T17:54:51.947Z,101080.34
2023-03-16T17:57:31.134Z,101072.00
2023-03-16T17:59:59.920Z,101062.94
2023-03-16T18:02:49.732Z,101063.31
2023-03-16T18:05:19.098Z,101067.56
2023-03-16T18:07:46.736Z,101074.09
2023-03-16T18:10:18.339Z,101073.75
2023-03-16T18:12:46.305Z,101073.13
2023-03-16T18:15:18.316Z,101073.81
2023-03-16T18:17:48.018Z,101080.97
2023-03-16T18:20:28.202Z,101073.69
2023-03-16T18:22:56.503Z,101076.97
2023-03-16T18:25:35.224Z,101084.00
2023-03-16T18:28:02.584Z,101083.69
2023-03-16T18:30:30.701Z,101089.72
2023-03-16T18:32:58.402Z,101084.41
2023-03-16T18:35:24.978Z,101079.88
2023-03-16T18:37:53.464Z,101080.56
2023-03-16T18:40:20.889Z,101062.91
2023-03-16T18:42:47.648Z,101071.84
2023-03-16T18:45:16.467Z,101072.66
2023-03-16T18:47:52.544Z,101075.56
2023-03-16T18:50:22.846Z,101080.28
2023-03-16T18:52:50.323Z,101075.59
2023-03-16T18:55:21.021Z,101075.75
2023-03-16T18:57:51.491Z,101066.56
2023-03-16T19:00:22.323Z,101053.59
2023-03-16T19:02:53.373Z,101050.84
2023-03-16T19:05:26.176Z,101047.13
2023-03-16T19:07:53.083Z,101047.59
2023-03-16T19:10:22.538Z,101055.06
2023-03-16T19:12:49.952Z,101061.75
2023-03-16T19:15:31.838Z,101055.59
2023-03-16T19:17:58.583Z,101065.66
2023-03-16T19:20:31.522Z,101061.94
2023-03-16T19:23:03.060Z,101064.03
2023-03-16T19:25:35.969Z,101050.44
2023-03-16T19:28:05.664Z,101042.34
2023-03-16T19:30:33.655Z,101038.00
2023-03-16T19:33:00.715Z,101033.94
2023-03-16T19:35:44.909Z,101029.75
2023-03-16T19:38:15.604Z,101032.97
2023-03-16T19:40:42.747Z,101026.31
2023-03-16T19:43:18.299Z,101032.63
2023-03-16T19:45:46.660Z,101022.78
2023-03-16T19:48:20.166Z,101023.72
2023-03-16T19:50:49.478Z,101019.22
2023-03-16T19:53:21.460Z,101027.47
2023-03-16T19:55:50.188Z,101025.38
2023-03-16T19:58:33.265Z,101025.53
2023-03-16T20:01:00.906Z,101005.63
2023-03-16T20:03:28.250Z,101018.88
2023-03-16T20:05:54.663Z,101021.78
2023-03-16T20:08:27.476Z,101015.97
2023-03-16T20:11:03.253Z,101014.03
2023-03-16T20:13:32.186Z,101010.47
2023-03-16T20:15:58.761Z,101013.53
2023-03-16T20:18:25.585Z,101014.16
2023-03-16T20:20:52.050Z,101009.84
2023-03-16T20:23:28.126Z,100996.22
2023-03-16T20:25:56.996Z,101007.41
2023-03-16T20:28:27.969Z,101027.41
2023-03-16T20:30:54.389Z,101031.00
2023-03-16T20:33:24.197Z,101030.84
2023-03-16T20:35:53.405Z,101020.66
2023-03-16T20:38:22.094Z,100998.81
2023-03-16T20:40:52.225Z,100991.03
2023-03-16T20:43:28.926Z,100991.19
2023-03-16T20:45:58.004Z,100994.94
2023-03-16T20:48:27.478Z,101008.34
2023-03-16T20:50:55.995Z,101011.56
2023-03-16T20:53:23.407Z,101000.56
2023-03-16T20:55:51.475Z,100998.00
2023-03-16T20:58:25.488Z,100989.25
2023-03-16T21:00:57.485Z,100990.72
2023-03-16T21:03:27.478Z,100982.31
2023-03-16T21:05:55.502Z,100983.59
2023-03-16T21:08:22.142Z,100980.53
2023-03-16T21:10:51.143Z,100981.69
2023-03-16T21:13:31.418Z,100994.94
2023-03-16T21:16:00.295Z,100996.19
2023-03-16T21:18:27.853Z,100999.25
2023-03-16T21:20:56.067Z,100999.72
2023-03-16T21:23:24.054Z,100986.16
2023-03-16T21:25:56.778Z,100978.09
2023-03-16T21:28:25.429Z,100983.41
2023-03-16T21:30:54.853Z,100988.09
2023-03-16T21:33:37.320Z,100983.25
2023-03-16T21:36:07.099Z,100979.19
2023-03-16T21:38:33.974Z,100980.34
2023-03-16T21:41:00.615Z,100979.84
2023-03-16T21:43:27.676Z,100976.75
2023-03-16T21:45:55.134Z,100968.66
2023-03-16T21:48:24.861Z,100970.28
2023-03-16T21:50:53.692Z,100984.16
2023-03-16T21:53:22.651Z,100985.47
2023-03-16T21:55:50.769Z,100972.38
2023-03-16T21:58:17.965Z,100975.56
2023-03-16T22:00:45.861Z,100968.13
2023-03-16T22:03:50.064Z,100969.06
2023-03-16T22:06:17.627Z,100971.16
2023-03-16T22:08:44.143Z,100964.53
2023-03-16T22:11:19.518Z,100963.88
2023-03-16T22:13:46.460Z,100956.44
2023-03-16T22:16:16.342Z,100944.00
2023-03-16T22:18:44.652Z,100949.19
2023-03-16T22:21:38.472Z,100951.91
2023-03-16T22:24:12.817Z,100968.88
2023-03-16T22:26:39.643Z,100950.13
2023-03-16T22:29:23.437Z,100942.53
2023-03-16T22:31:55.237Z,100949.63
2023-03-16T22:34:44.313Z,100943.66
2023-03-16T22:37:14.454Z,100952.38
2023-03-16T22:39:40.971Z,100955.28
2023-03-16T22:42:19.231Z,100963.16
2023-03-16T22:44:45.749Z,100953.16
2023-03-16T22:47:23.279Z,100945.41
2023-03-16T22:49:49.705Z,100944.72
2023-03-16T22:52:17.216Z,100944.91
2023-03-16T22:54:44.602Z,100939.41
2023-03-16T22:57:16.860Z,100940.53
2023-03-16T22:59:45.678Z,100943.91
2023-03-16T23:02:15.825Z,100946.50
2023-03-16T23:04:42.363Z,100930.22
2023-03-16T23:07:13.066Z,100933.44
2023-03-16T23:09:39.837Z,100937.66
2023-03-16T23:12:15.152Z,100950.56
2023-03-16T23:14:42.215Z,100960.22
2023-03-16T23:17:26.992Z,100961.19
2023-03-16T23:19:54.211Z,100956.03
2023-03-16T23:22:20.571Z,100944.41
2023-03-16T23:24:47.310Z,100933.47
2023-03-16T23:27:20.097Z,100920.75
2023-03-16T23:29:46.856Z,100930.75
2023-03-16T23:32:16.981Z,100929.19
2023-03-16T23:34:43.427Z,100930.47
2023-03-16T23:37:09.877Z,100940.50
2023-03-16T23:39:36.437Z,100938.72
2023-03-16T23:42:03.874Z,100941.16
2023-03-16T23:44:30.634Z,100930.16
2023-03-16T23:46:58.617Z,100930.00
2023-03-16T23:49:32.529Z,100943.72
2023-03-16T23:52:01.446Z,100944.72
2023-03-16T23:54:30.646Z,100965.53
2023-03-16T23:56:57.229Z,100958.09
2023-03-16T23:59:24.763Z,100946.59
